createdAt,value
2018-04-14T00:01:04.068Z,18.47
2018-04-14T00:03:37.777Z,19.03
2018-04-14T00:06:11.401Z,19.17
2018-04-14T00:08:45.220Z,18.90
2018-04-14T00:11:18.877Z,18.57
2018-04-14T00:13:52.629Z,18.60
2018-04-14T00:16:26.603Z,18.73
2018-04-14T00:19:00.229Z,19.47
2018-04-14T00:21:33.938Z,20.33
2018-04-14T00:24:07.695Z,19.37
2018-04-14T00:26:41.395Z,18.83
2018-04-14T00:29:14.969Z,20.20
2018-04-14T00:31:48.625Z,21.97
2018-04-14T00:34:22.183Z,20.17
2018-04-14T00:36:55.829Z,20.17
2018-04-14T00:39:29.570Z,19.33
2018-04-14T00:42:03.295Z,20.63
2018-04-14T00:44:36.892Z,20.13
2018-04-14T00:47:10.453Z,21.50
2018-04-14T00:49:44.009Z,21.20
2018-04-14T00:52:17.810Z,18.83
2018-04-14T00:54:51.541Z,19.17
2018-04-14T00:57:25.560Z,19.40
2018-04-14T00:59:59.216Z,17.53
2018-04-14T01:02:32.941Z,17.77
2018-04-14T01:05:06.994Z,17.20
2018-04-14T01:07:40.671Z,16.33
2018-04-14T01:10:14.452Z,17.50
2018-04-14T01:12:48.153Z,16.40
2018-04-14T01:15:21.945Z,17.40
2018-04-14T01:17:55.709Z,16.57
2018-04-14T01:20:29.482Z,17.00
2018-04-14T01:23:03.316Z,18.03
2018-04-14T01:25:36.932Z,18.23
2018-04-14T01:28:10.685Z,18.80
2018-04-14T01:30:44.241Z,20.10
2018-04-14T01:33:17.834Z,19.00
2018-04-14T01:35:51.590Z,20.27
2018-04-14T01:38:25.348Z,20.37
2018-04-14T01:40:59.196Z,20.33
2018-04-14T01:43:32.745Z,23.33
2018-04-14T01:46:06.489Z,25.07
2018-04-14T01:48:40.517Z,24.70
2018-04-14T01:51:14.344Z,24.50
2018-04-14T01:53:48.060Z,24.57
2018-04-14T01:56:21.749Z,25.43
2018-04-14T01:58:55.354Z,25.90
2018-04-14T02:01:29.279Z,24.23
2018-04-14T02:04:03.064Z,25.63
2018-04-14T02:06:36.851Z,23.97
2018-04-14T02:09:10.561Z,25.47
2018-04-14T02:11:44.342Z,24.03
2018-04-14T02:14:18.247Z,24.90
2018-04-14T02:16:51.877Z,23.73
2018-04-14T02:19:25.640Z,25.17
2018-04-14T02:21:59.329Z,23.40
2018-04-14T02:24:33.051Z,24.27
2018-04-14T02:27:07.061Z,24.37
2018-04-14T02:29:40.675Z,22.80
2018-04-14T02:32:14.404Z,23.43
2018-04-14T02:34:47.972Z,24.23
2018-04-14T02:37:21.692Z,23.47
2018-04-14T02:39:55.352Z,24.57
2018-04-14T02:42:29.056Z,24.77
2018-04-14T02:45:02.777Z,25.37
2018-04-14T02:47:36.528Z,25.33
2018-04-14T02:50:10.265Z,24.40
2018-04-14T02:52:43.913Z,25.07
2018-04-14T02:55:17.794Z,24.77
2018-04-14T02:57:51.587Z,25.17
2018-04-14T03:00:25.355Z,25.80
2018-04-14T03:02:58.994Z,25.97
2018-04-14T03:05:32.689Z,25.70
2018-04-14T03:08:06.499Z,24.87
2018-04-14T03:10:40.463Z,24.63
2018-04-14T03:13:14.558Z,24.27
2018-04-14T03:15:48.228Z,21.83
2018-04-14T03:18:21.940Z,20.50
2018-04-14T03:20:55.649Z,20.07
2018-04-14T03:23:29.625Z,19.10
2018-04-14T03:26:03.395Z,19.00
2018-04-14T03:28:36.972Z,17.30
2018-04-14T03:31:10.854Z,18.60
2018-04-14T03:33:44.657Z,20.13
2018-04-14T03:36:18.300Z,18.97
2018-04-14T03:38:52.077Z,19.47
2018-04-14T03:41:25.792Z,17.83
2018-04-14T03:43:59.382Z,18.23
2018-04-14T03:46:33.155Z,18.20
2018-04-14T03:49:06.712Z,17.93
2018-04-14T03:51:40.417Z,18.20
2018-04-14T03:54:14.032Z,16.43
2018-04-14T03:56:47.796Z,16.07
2018-04-14T03:59:21.385Z,14.97
2018-04-14T04:01:54.909Z,14.50
2018-04-14T04:04:28.529Z,13.53
2018-04-14T04:07:02.094Z,12.90
2018-04-14T04:09:35.952Z,14.00
2018-04-14T04:12:09.546Z,12.60
2018-04-14T04:14:43.243Z,12.57
2018-04-14T04:17:16.860Z,11.33
2018-04-14T04:20:03.313Z,10.33
2018-04-14T04:22:48.921Z,9.57
2018-04-14T04:25:24.436Z,9.07
2018-04-14T04:27:58.101Z,9.63
2018-04-14T04:30:31.803Z,9.70
2018-04-14T04:33:05.525Z,8.87
2018-04-14T04:35:39.242Z,9.43
2018-04-14T04:38:12.952Z,9.03
2018-04-14T04:40:46.668Z,9.60
2018-04-14T04:43:20.317Z,9.90
2018-04-14T04:45:54.114Z,9.77
2018-04-14T04:48:27.821Z,9.53
2018-04-14T04:51:01.464Z,9.27
2018-04-14T04:53:35.051Z,9.50
2018-04-14T04:56:08.781Z,9.40
2018-04-14T04:58:42.648Z,9.70
2018-04-14T05:01:16.457Z,9.63
2018-04-14T05:03:50.189Z,10.10
2018-04-14T05:06:23.873Z,9.07
2018-04-14T05:08:57.647Z,11.23
2018-04-14T05:11:31.460Z,10.40
2018-04-14T05:14:05.227Z,9.47
2018-04-14T05:16:38.797Z,10.00
2018-04-14T05:19:12.552Z,10.03
2018-04-14T05:21:46.269Z,11.07
2018-04-14T05:24:20.012Z,11.03
2018-04-14T05:26:53.697Z,9.93
2018-04-14T05:29:27.316Z,10.40
2018-04-14T05:32:00.965Z,11.03
2018-04-14T05:34:34.745Z,10.63
2018-04-14T05:37:08.434Z,11.33
2018-04-14T05:39:42.133Z,11.00
2018-04-14T05:42:15.883Z,12.27
2018-04-14T05:44:49.642Z,12.17
2018-04-14T05:47:23.385Z,11.60
2018-04-14T05:49:57.022Z,12.10
2018-04-14T05:52:30.605Z,12.87
2018-04-14T05:55:04.447Z,13.27
2018-04-14T05:57:38.229Z,13.87
2018-04-14T06:00:11.846Z,13.73
2018-04-14T06:02:45.379Z,14.33
2018-04-14T06:05:19.197Z,16.23
2018-04-14T06:07:52.776Z,15.63
2018-04-14T06:10:26.325Z,15.77
2018-04-14T06:12:59.911Z,17.97
2018-04-14T06:15:33.472Z,15.90
2018-04-14T06:18:07.132Z,16.87
2018-04-14T06:20:40.756Z,17.17
2018-04-14T06:23:14.344Z,18.40
2018-04-14T06:25:47.863Z,17.57
2018-04-14T06:28:21.386Z,18.37
2018-04-14T06:30:55.158Z,18.07
2018-04-14T06:33:28.822Z,20.10
2018-04-14T06:36:02.604Z,17.87
2018-04-14T06:38:36.276Z,17.43
2018-04-14T06:41:09.812Z,18.53
2018-04-14T06:43:43.600Z,18.90
2018-04-14T06:46:17.104Z,21.03
2018-04-14T06:48:50.878Z,22.40
2018-04-14T06:51:24.644Z,19.00
2018-04-14T06:53:58.421Z,21.30
2018-04-14T06:56:32.260Z,20.43
2018-04-14T06:59:06.026Z,21.97
2018-04-14T07:01:39.811Z,20.07
2018-04-14T07:04:13.397Z,21.07
2018-04-14T07:06:46.962Z,23.93
2018-04-14T07:09:20.651Z,24.23
2018-04-14T07:11:54.300Z,22.27
2018-04-14T07:14:28.052Z,23.93
2018-04-14T07:17:01.972Z,22.00
2018-04-14T07:19:35.678Z,19.57
2018-04-14T07:22:09.477Z,20.90
2018-04-14T07:24:43.314Z,20.03
2018-04-14T07:27:17.053Z,20.87
2018-04-14T07:29:50.888Z,21.17
2018-04-14T07:32:24.460Z,22.00
2018-04-14T07:34:58.235Z,21.60
2018-04-14T07:37:31.865Z,21.97
2018-04-14T07:40:05.549Z,22.07
2018-04-14T07:42:39.210Z,22.50
2018-04-14T07:45:13.040Z,22.53
2018-04-14T07:47:46.703Z,25.37
2018-04-14T07:50:20.411Z,25.30
2018-04-14T07:52:54.057Z,25.60
2018-04-14T07:55:27.708Z,26.70
2018-04-14T07:58:01.493Z,27.33
2018-04-14T08:00:35.218Z,28.00
2018-04-14T08:03:08.987Z,31.50
2018-04-14T08:05:42.631Z,28.33
2018-04-14T08:08:16.465Z,28.87
2018-04-14T08:10:50.104Z,33.80
2018-04-14T08:13:23.751Z,34.10
2018-04-14T08:15:57.396Z,46.53
2018-04-14T08:18:31.152Z,46.63
2018-04-14T08:21:04.747Z,50.13
2018-04-14T08:23:38.305Z,51.13
2018-04-14T08:26:11.949Z,51.13
2018-04-14T08:28:45.677Z,51.63
2018-04-14T08:31:19.176Z,48.47
2018-04-14T08:33:52.869Z,48.77
2018-04-14T08:36:26.586Z,51.00
2018-04-14T08:39:00.423Z,51.23
2018-04-14T08:41:34.216Z,53.63
2018-04-14T08:44:07.741Z,52.53
2018-04-14T08:46:41.440Z,54.47
2018-04-14T08:49:15.114Z,54.37
2018-04-14T08:51:48.628Z,52.43
2018-04-14T08:54:22.396Z,56.43
2018-04-14T08:56:56.135Z,57.10
2018-04-14T08:59:29.856Z,56.90
2018-04-14T09:02:03.502Z,52.50
2018-04-14T09:04:36.990Z,53.90
2018-04-14T09:07:10.556Z,51.80
2018-04-14T09:09:44.419Z,55.10
2018-04-14T09:12:18.073Z,56.47
2018-04-14T09:14:51.751Z,55.40
2018-04-14T09:17:25.304Z,56.23
2018-04-14T09:19:58.877Z,53.13
2018-04-14T09:22:32.397Z,53.27
2018-04-14T09:25:05.988Z,53.77
2018-04-14T09:27:39.734Z,52.67
2018-04-14T09:30:13.483Z,52.57
2018-04-14T09:32:47.192Z,51.03
2018-04-14T09:35:20.819Z,52.20
2018-04-14T09:37:54.492Z,52.93
2018-04-14T09:40:28.143Z,52.67
2018-04-14T09:43:01.677Z,51.73
2018-04-14T09:45:35.264Z,50.63
2018-04-14T09:48:08.807Z,53.43
2018-04-14T09:50:42.348Z,53.73
2018-04-14T09:53:15.883Z,52.70
2018-04-14T09:55:49.459Z,53.90
2018-04-14T09:58:23.000Z,54.10
2018-04-14T10:01:01.777Z,54.23
2018-04-14T10:03:35.465Z,51.13
2018-04-14T10:06:09.166Z,51.30
2018-04-14T10:08:43.610Z,51.83
2018-04-14T10:11:17.330Z,50.73
2018-04-14T10:13:50.987Z,52.93
2018-04-14T10:16:24.945Z,49.67
2018-04-14T10:18:58.774Z,48.87
2018-04-14T10:21:32.609Z,52.63
2018-04-14T10:24:06.261Z,51.40
2018-04-14T10:26:40.116Z,52.27
2018-04-14T10:29:13.799Z,51.77
2018-04-14T10:31:47.557Z,50.77
2018-04-14T10:34:21.158Z,49.47
2018-04-14T10:36:55.209Z,50.57
2018-04-14T10:39:29.024Z,46.67
2018-04-14T10:42:02.627Z,49.40
2018-04-14T10:44:36.362Z,49.87
2018-04-14T10:47:10.105Z,50.97
2018-04-14T10:49:43.699Z,49.77
2018-04-14T10:52:17.343Z,48.00
2018-04-14T10:54:50.970Z,50.10
2018-04-14T10:57:24.762Z,48.60
2018-04-14T10:59:58.364Z,48.13
2018-04-14T11:02:31.939Z,48.73
2018-04-14T11:05:05.537Z,47.93
2018-04-14T11:07:39.061Z,49.37
2018-04-14T11:10:12.597Z,49.10
2018-04-14T11:12:46.199Z,46.83
2018-04-14T11:15:19.963Z,46.90
2018-04-14T11:17:53.676Z,45.60
2018-04-14T11:20:27.427Z,45.83
2018-04-14T11:23:00.998Z,47.43
2018-04-14T11:25:34.529Z,47.13
2018-04-14T11:28:08.272Z,47.07
2018-04-14T11:30:41.883Z,50.53
2018-04-14T11:33:20.468Z,48.67
2018-04-14T11:35:53.963Z,50.63
2018-04-14T11:38:27.512Z,48.73
2018-04-14T11:41:01.150Z,50.67
2018-04-14T11:43:34.748Z,49.37
2018-04-14T11:46:08.384Z,46.73
2018-04-14T11:48:41.924Z,51.07
2018-04-14T11:51:15.564Z,50.53
2018-04-14T11:53:49.261Z,48.70
2018-04-14T11:56:22.843Z,43.57
2018-04-14T11:58:56.508Z,44.93
2018-04-14T12:01:30.111Z,45.00
2018-04-14T12:04:03.960Z,45.27
2018-04-14T12:06:37.580Z,44.83
2018-04-14T12:09:11.264Z,44.90
2018-04-14T12:11:44.947Z,43.07
2018-04-14T12:14:18.620Z,43.67
2018-04-14T12:16:52.208Z,40.23
2018-04-14T12:19:25.988Z,40.33
2018-04-14T12:21:59.620Z,39.63
2018-04-14T12:24:33.353Z,40.43
2018-04-14T12:27:07.102Z,38.77
2018-04-14T12:29:40.681Z,40.90
2018-04-14T12:32:14.452Z,39.87
2018-04-14T12:34:48.835Z,39.73
2018-04-14T12:37:22.489Z,38.60
2018-04-14T12:39:56.279Z,38.03
2018-04-14T12:42:30.036Z,36.17
2018-04-14T12:45:03.914Z,38.77
2018-04-14T12:47:37.564Z,37.60
2018-04-14T12:50:11.140Z,38.10
2018-04-14T12:52:44.942Z,36.97
2018-04-14T12:55:18.443Z,34.37
2018-04-14T12:57:52.199Z,35.10
2018-04-14T13:00:25.999Z,27.20
2018-04-14T13:02:59.663Z,25.70
2018-04-14T13:05:33.440Z,24.30
2018-04-14T13:08:07.075Z,24.87
2018-04-14T13:10:40.660Z,23.50
2018-04-14T13:13:14.216Z,23.47
2018-04-14T13:15:47.813Z,18.57
2018-04-14T13:18:21.402Z,19.13
2018-04-14T13:20:55.056Z,18.87
2018-04-14T13:23:28.809Z,17.97
2018-04-14T13:26:02.514Z,20.23
2018-04-14T13:28:36.061Z,18.73
2018-04-14T13:31:09.680Z,17.40
2018-04-14T13:33:43.395Z,19.70
2018-04-14T13:36:17.061Z,16.17
2018-04-14T13:38:50.724Z,17.47
2018-04-14T13:41:24.330Z,17.70
2018-04-14T13:43:58.072Z,16.60
2018-04-14T13:46:31.830Z,19.60
2018-04-14T13:49:05.409Z,21.77
2018-04-14T13:51:39.059Z,19.13
2018-04-14T13:54:12.772Z,24.33
2018-04-14T13:56:46.424Z,24.37
2018-04-14T13:59:20.071Z,22.90
2018-04-14T14:01:53.825Z,22.33
2018-04-14T14:04:27.397Z,20.93
2018-04-14T14:07:00.977Z,21.60
2018-04-14T14:09:34.723Z,23.57
2018-04-14T14:12:08.390Z,23.93
2018-04-14T14:14:42.125Z,21.63
2018-04-14T14:17:15.888Z,22.93
2018-04-14T14:19:49.463Z,23.20
2018-04-14T14:22:23.216Z,21.70
2018-04-14T14:24:56.835Z,21.60
2018-04-14T14:27:30.596Z,22.27
2018-04-14T14:30:04.194Z,20.00
2018-04-14T14:32:37.823Z,21.03
2018-04-14T14:35:11.357Z,19.73
2018-04-14T14:37:44.885Z,20.83
2018-04-14T14:40:18.717Z,21.13
2018-04-14T14:42:52.293Z,19.70
2018-04-14T14:45:25.829Z,18.23
2018-04-14T14:47:59.603Z,18.03
2018-04-14T14:50:33.319Z,18.00
2018-04-14T14:53:06.981Z,17.67
2018-04-14T14:55:40.655Z,18.17
2018-04-14T14:58:14.305Z,18.17
2018-04-14T15:00:48.016Z,19.60
2018-04-14T15:03:21.693Z,18.93
2018-04-14T15:05:55.348Z,20.57
2018-04-14T15:08:28.923Z,22.40
2018-04-14T15:11:02.579Z,21.57
2018-04-14T15:13:36.197Z,21.40
2018-04-14T15:16:09.852Z,19.93
2018-04-14T15:18:43.519Z,21.07
2018-04-14T15:21:17.083Z,22.57
2018-04-14T15:23:50.650Z,21.10
2018-04-14T15:26:24.270Z,22.30
2018-04-14T15:28:57.836Z,27.60
2018-04-14T15:31:31.478Z,23.23
2018-04-14T15:34:05.238Z,21.20
2018-04-14T15:36:38.900Z,21.97
2018-04-14T15:39:12.836Z,21.70
2018-04-14T15:41:46.340Z,21.90
2018-04-14T15:44:19.864Z,20.60
2018-04-14T15:46:53.453Z,22.43
2018-04-14T15:49:27.025Z,21.50
2018-04-14T15:52:00.572Z,21.83
2018-04-14T15:54:34.163Z,23.30
2018-04-14T15:57:07.803Z,21.23
2018-04-14T15:59:41.416Z,21.23
2018-04-14T16:02:15.176Z,21.37
2018-04-14T16:04:48.942Z,23.00
2018-04-14T16:07:22.563Z,22.97
2018-04-14T16:09:56.086Z,21.53
2018-04-14T16:12:29.783Z,20.93
2018-04-14T16:15:03.544Z,21.77
2018-04-14T16:17:39.653Z,20.73
2018-04-14T16:20:14.308Z,21.03
2018-04-14T16:22:48.105Z,20.97
2018-04-14T16:25:21.782Z,20.23
2018-04-14T16:27:55.441Z,20.37
2018-04-14T16:30:29.091Z,20.37
2018-04-14T16:33:02.722Z,22.37
2018-04-14T16:35:36.419Z,19.80
2018-04-14T16:38:10.110Z,20.53
2018-04-14T16:40:43.689Z,19.70
2018-04-14T16:43:17.380Z,18.57
2018-04-14T16:45:51.096Z,18.47
2018-04-14T16:48:24.842Z,17.80
2018-04-14T16:50:58.452Z,17.30
2018-04-14T16:53:32.095Z,17.70
2018-04-14T16:56:05.836Z,18.50
2018-04-14T16:58:39.490Z,19.13
2018-04-14T17:01:13.266Z,19.60
2018-04-14T17:03:46.817Z,19.93
2018-04-14T17:06:20.392Z,21.37
2018-04-14T17:08:54.090Z,20.20
2018-04-14T17:11:27.782Z,21.27
2018-04-14T17:14:01.330Z,21.03
2018-04-14T17:16:35.057Z,20.50
2018-04-14T17:19:08.538Z,21.70
2018-04-14T17:21:42.340Z,20.77
2018-04-14T17:24:16.040Z,20.70
2018-04-14T17:26:49.611Z,21.67
2018-04-14T17:29:23.166Z,20.63
2018-04-14T17:31:56.916Z,21.63
2018-04-14T17:34:30.485Z,19.97
2018-04-14T17:37:04.168Z,19.60
2018-04-14T17:39:37.817Z,19.30
2018-04-14T17:42:11.397Z,19.17
2018-04-14T17:44:45.200Z,18.57
2018-04-14T17:47:18.878Z,18.23
2018-04-14T17:49:52.533Z,20.47
2018-04-14T17:52:26.041Z,18.87
2018-04-14T17:54:59.715Z,19.63
2018-04-14T17:57:33.257Z,20.43
2018-04-14T18:00:06.864Z,21.43
2018-04-14T18:02:40.468Z,21.03
2018-04-14T18:05:14.020Z,21.37
2018-04-14T18:07:47.668Z,19.57
2018-04-14T18:10:21.198Z,19.97
2018-04-14T18:12:54.900Z,21.33
2018-04-14T18:15:28.580Z,20.20
2018-04-14T18:18:02.158Z,21.43
2018-04-14T18:20:35.925Z,19.00
2018-04-14T18:23:09.472Z,20.73
2018-04-14T18:25:43.044Z,20.33
2018-04-14T18:28:16.640Z,19.80
2018-04-14T18:30:50.310Z,19.90
2018-04-14T18:33:24.076Z,19.17
2018-04-14T18:35:57.701Z,19.07
2018-04-14T18:38:31.332Z,20.87
2018-04-14T18:41:04.878Z,18.97
2018-04-14T18:43:38.712Z,19.47
2018-04-14T18:46:12.382Z,20.63
2018-04-14T18:48:45.965Z,21.50
2018-04-14T18:51:19.848Z,20.77
2018-04-14T18:53:53.305Z,21.60
2018-04-14T18:56:26.948Z,21.87
2018-04-14T18:59:00.616Z,20.80
2018-04-14T19:01:34.219Z,21.73
2018-04-14T19:04:07.985Z,21.33
2018-04-14T19:06:41.679Z,21.13
2018-04-14T19:09:15.386Z,21.70
2018-04-14T19:11:48.957Z,21.43
2018-04-14T19:14:22.692Z,21.67
2018-04-14T19:16:56.259Z,20.87
2018-04-14T19:19:29.914Z,21.53
2018-04-14T19:22:03.456Z,20.87
2018-04-14T19:24:37.056Z,20.83
2018-04-14T19:27:10.658Z,22.30
2018-04-14T19:29:44.420Z,21.70
2018-04-14T19:32:18.055Z,21.80
2018-04-14T19:34:51.755Z,20.87
2018-04-14T19:37:25.332Z,21.13
2018-04-14T19:39:59.075Z,22.03
2018-04-14T19:42:32.764Z,21.13
2018-04-14T19:45:06.375Z,19.33
2018-04-14T19:47:40.243Z,19.60
2018-04-14T19:50:13.766Z,20.37
2018-04-14T19:52:47.437Z,20.67
2018-04-14T19:55:21.117Z,20.33
2018-04-14T19:57:54.694Z,20.10
2018-04-14T20:00:28.496Z,20.13
2018-04-14T20:03:02.042Z,21.23
2018-04-14T20:05:35.753Z,22.03
2018-04-14T20:08:09.589Z,23.37
2018-04-14T20:10:43.207Z,24.90
2018-04-14T20:13:16.790Z,25.57
2018-04-14T20:15:50.427Z,25.60
2018-04-14T20:18:23.980Z,27.27
2018-04-14T20:20:57.508Z,27.50
2018-04-14T20:23:31.072Z,28.57
2018-04-14T20:26:04.729Z,29.70
2018-04-14T20:28:38.559Z,28.07
2018-04-14T20:31:12.431Z,30.03
2018-04-14T20:33:45.996Z,30.37
2018-04-14T20:36:19.685Z,29.97
2018-04-14T20:38:53.397Z,30.43
2018-04-14T20:41:26.970Z,32.60
2018-04-14T20:44:00.689Z,32.93
2018-04-14T20:46:34.319Z,31.73
2018-04-14T20:49:07.947Z,33.87
2018-04-14T20:51:41.538Z,33.30
2018-04-14T20:54:15.076Z,34.10
2018-04-14T20:56:48.608Z,32.70
2018-04-14T20:59:22.179Z,33.47
2018-04-14T21:01:55.970Z,33.07
2018-04-14T21:04:29.572Z,33.27
2018-04-14T21:07:03.453Z,32.77
2018-04-14T21:09:37.274Z,34.13
2018-04-14T21:12:10.849Z,33.60
2018-04-14T21:14:44.512Z,34.23
2018-04-14T21:17:18.061Z,33.83
2018-04-14T21:19:51.615Z,34.23
2018-04-14T21:22:25.212Z,33.03
2018-04-14T21:24:58.766Z,32.37
2018-04-14T21:27:32.422Z,32.73
2018-04-14T21:30:06.154Z,34.23
2018-04-14T21:32:39.701Z,34.30
2018-04-14T21:35:13.199Z,34.23
2018-04-14T21:37:46.960Z,33.27
2018-04-14T21:40:20.492Z,32.37
2018-04-14T21:42:54.054Z,34.37
2018-04-14T21:45:27.661Z,32.40
2018-04-14T21:48:01.355Z,32.93
2018-04-14T21:50:34.972Z,33.53
2018-04-14T21:53:08.501Z,32.93
2018-04-14T21:55:42.160Z,32.53
2018-04-14T21:58:15.885Z,33.20
2018-04-14T22:00:49.576Z,32.50
2018-04-14T22:03:23.054Z,32.43
2018-04-14T22:05:56.616Z,32.83
2018-04-14T22:08:30.278Z,30.80
2018-04-14T22:11:03.984Z,32.47
2018-04-14T22:13:37.632Z,30.83
2018-04-14T22:16:11.411Z,32.13
2018-04-14T22:18:45.253Z,31.73
2018-04-14T22:21:19.012Z,33.87
2018-04-14T22:23:52.544Z,31.90
2018-04-14T22:26:26.216Z,33.07
2018-04-14T22:28:59.782Z,32.03
2018-04-14T22:31:33.480Z,31.73
2018-04-14T22:34:07.022Z,32.70
2018-04-14T22:36:40.568Z,32.17
2018-04-14T22:39:14.177Z,31.57
2018-04-14T22:41:47.962Z,32.77
2018-04-14T22:44:21.561Z,33.20
2018-04-14T22:46:55.115Z,31.07
2018-04-14T22:49:28.835Z,31.83
2018-04-14T22:52:02.351Z,32.30
2018-04-14T22:54:36.071Z,30.33
2018-04-14T22:57:09.619Z,29.07
2018-04-14T22:59:43.212Z,31.13
2018-04-14T23:02:16.822Z,30.07
2018-04-14T23:04:50.657Z,28.53
2018-04-14T23:07:24.359Z,27.13
2018-04-14T23:09:58.104Z,27.23
2018-04-14T23:12:31.712Z,26.80
2018-04-14T23:15:05.270Z,25.40
2018-04-14T23:17:38.967Z,25.37
2018-04-14T23:20:12.636Z,25.80
2018-04-14T23:22:46.263Z,23.60
2018-04-14T23:25:20.648Z,22.93
2018-04-14T23:27:54.306Z,21.97
2018-04-14T23:30:27.934Z,22.20
2018-04-14T23:33:01.713Z,22.40
2018-04-14T23:35:35.496Z,26.17
2018-04-14T23:38:09.157Z,25.07
2018-04-14T23:40:42.856Z,26.40
2018-04-14T23:43:16.462Z,27.53
2018-04-14T23:45:50.018Z,28.97
2018-04-14T23:48:23.828Z,30.73
2018-04-14T23:50:57.433Z,33.77
2018-04-14T23:53:30.978Z,34.63
2018-04-14T23:56:04.748Z,36.13
2018-04-14T23:58:38.476Z,37.83
